createdAt,value
2018-12-29T00:00:02.360Z,4.93
2018-12-29T00:01:02.751Z,4.93
2018-12-29T00:02:03.131Z,4.87
2018-12-29T00:03:02.492Z,4.93
2018-12-29T00:04:02.887Z,4.93
2018-12-29T00:05:03.263Z,4.93
2018-12-29T00:06:02.521Z,4.93
2018-12-29T00:07:02.832Z,4.93
2018-12-29T00:08:03.077Z,4.87
2018-12-29T00:09:02.349Z,4.87
2018-12-29T00:10:02.740Z,4.93
2018-12-29T00:11:03.131Z,4.93
2018-12-29T00:12:02.443Z,4.93
2018-12-29T00:13:02.780Z,4.93
2018-12-29T00:14:03.069Z,4.93
2018-12-29T00:15:02.355Z,4.93
2018-12-29T00:16:02.679Z,4.93
2018-12-29T00:17:03.047Z,4.93
2018-12-29T00:18:02.355Z,4.93
2018-12-29T00:19:02.752Z,4.93
2018-12-29T00:20:03.139Z,4.93
2018-12-29T00:21:02.445Z,4.93
2018-12-29T00:22:02.766Z,4.93
2018-12-29T00:23:03.383Z,4.93
2018-12-29T00:24:02.675Z,4.87
2018-12-29T00:25:02.992Z,4.93
2018-12-29T00:26:02.329Z,4.93
2018-12-29T00:27:03.474Z,4.93
2018-12-29T00:28:02.762Z,4.93
2018-12-29T00:29:03.492Z,4.93
2018-12-29T00:30:02.762Z,4.87
2018-12-29T00:31:03.083Z,4.93
2018-12-29T00:32:02.367Z,4.93
2018-12-29T00:33:02.691Z,4.93
2018-12-29T00:34:03.050Z,4.93
2018-12-29T00:35:02.408Z,4.93
2018-12-29T00:36:02.728Z,4.87
2018-12-29T00:37:02.992Z,4.87
2018-12-29T00:38:02.281Z,4.87
2018-12-29T00:39:02.595Z,4.81
2018-12-29T00:40:02.976Z,4.87
2018-12-29T00:41:02.300Z,4.87
2018-12-29T00:42:02.579Z,4.81
2018-12-29T00:43:02.834Z,4.81
2018-12-29T00:44:03.161Z,4.81
2018-12-29T00:45:02.979Z,4.75
2018-12-29T00:46:02.416Z,4.75
2018-12-29T00:47:02.692Z,4.75
2018-12-29T00:48:03.002Z,4.75
2018-12-29T00:49:02.272Z,4.68
2018-12-29T00:50:02.596Z,4.68
2018-12-29T00:51:03.035Z,4.68
2018-12-29T00:52:02.347Z,4.56
2018-12-29T00:53:02.589Z,4.62
2018-12-29T00:54:02.829Z,4.68
2018-12-29T00:55:03.088Z,4.68
2018-12-29T00:56:04.145Z,4.62
2018-12-29T00:57:02.540Z,4.62
2018-12-29T00:58:02.835Z,4.62
2018-12-29T00:59:03.167Z,4.62
2018-12-29T01:00:02.544Z,4.62
2018-12-29T01:01:02.848Z,4.68
2018-12-29T01:02:03.171Z,4.68
2018-12-29T01:03:02.538Z,4.68
2018-12-29T01:04:02.847Z,4.68
2018-12-29T01:05:03.156Z,4.68
2018-12-29T01:06:02.449Z,4.68
2018-12-29T01:07:02.822Z,4.75
2018-12-29T01:08:03.131Z,4.75
2018-12-29T01:09:02.758Z,4.75
2018-12-29T01:10:03.087Z,4.75
2018-12-29T01:11:02.365Z,4.75
2018-12-29T01:12:02.688Z,4.75
2018-12-29T01:13:03.051Z,4.75
2018-12-29T01:14:02.456Z,4.75
2018-12-29T01:15:09.620Z,4.75
2018-12-29T01:16:03.156Z,4.81
2018-12-29T01:17:02.444Z,4.81
2018-12-29T01:18:02.758Z,4.81
2018-12-29T01:19:03.133Z,4.81
2018-12-29T01:20:02.501Z,4.81
2018-12-29T01:21:02.837Z,4.81
2018-12-29T01:22:03.215Z,4.81
2018-12-29T01:23:02.599Z,4.81
2018-12-29T01:24:02.918Z,4.81
2018-12-29T01:25:03.333Z,4.87
2018-12-29T01:26:02.617Z,4.87
2018-12-29T01:27:02.914Z,4.87
2018-12-29T01:28:03.261Z,4.87
2018-12-29T01:29:03.394Z,4.87
2018-12-29T01:30:02.701Z,4.87
2018-12-29T01:31:03.057Z,4.87
2018-12-29T01:32:02.370Z,4.87
2018-12-29T01:33:02.680Z,4.87
2018-12-29T01:34:03.010Z,4.87
2018-12-29T01:35:02.274Z,4.87
2018-12-29T01:36:02.605Z,4.87
2018-12-29T01:37:02.971Z,4.87
2018-12-29T01:38:02.291Z,4.87
2018-12-29T01:39:02.715Z,4.87
2018-12-29T01:40:02.991Z,4.81
2018-12-29T01:41:02.276Z,4.87
2018-12-29T01:42:02.622Z,4.87
2018-12-29T01:43:02.978Z,4.87
2018-12-29T01:44:02.270Z,4.87
2018-12-29T01:45:03.402Z,4.87
2018-12-29T01:46:02.748Z,4.87
2018-12-29T01:47:03.019Z,4.87
2018-12-29T01:48:02.330Z,4.87
2018-12-29T01:49:02.597Z,4.87
2018-12-29T01:50:02.913Z,4.87
2018-12-29T01:51:03.168Z,4.87
2018-12-29T01:52:02.440Z,4.87
2018-12-29T01:53:02.821Z,4.87
2018-12-29T01:54:03.168Z,4.87
2018-12-29T01:55:02.430Z,4.87
2018-12-29T01:56:02.692Z,4.87
2018-12-29T01:57:02.989Z,4.87
2018-12-29T01:58:02.337Z,4.87
2018-12-29T01:59:02.600Z,4.87
2018-12-29T02:00:02.936Z,4.81
2018-12-29T02:01:03.256Z,4.81
2018-12-29T02:02:02.516Z,4.81
2018-12-29T02:03:02.892Z,4.87
2018-12-29T02:04:03.147Z,4.87
2018-12-29T02:05:02.442Z,4.87
2018-12-29T02:06:02.765Z,4.87
2018-12-29T02:07:03.484Z,4.87
2018-12-29T02:08:03.106Z,4.81
2018-12-29T02:09:02.605Z,4.87
2018-12-29T02:10:03.124Z,4.81
2018-12-29T02:11:02.552Z,4.81
2018-12-29T02:12:03.022Z,4.87
2018-12-29T02:13:02.495Z,4.87
2018-12-29T02:14:02.947Z,4.87
2018-12-29T02:15:04.112Z,4.87
2018-12-29T02:16:02.437Z,4.81
2018-12-29T02:17:02.782Z,4.81
2018-12-29T02:18:03.102Z,4.87
2018-12-29T02:19:02.374Z,4.87
2018-12-29T02:20:02.774Z,4.87
2018-12-29T02:21:03.085Z,4.87
2018-12-29T02:22:02.356Z,4.81
2018-12-29T02:23:02.678Z,4.81
2018-12-29T02:24:02.992Z,4.87
2018-12-29T02:25:02.365Z,4.87
2018-12-29T02:26:02.725Z,4.87
2018-12-29T02:27:02.994Z,4.87
2018-12-29T02:28:02.291Z,4.87
2018-12-29T02:29:02.650Z,4.87
2018-12-29T02:30:02.939Z,4.87
2018-12-29T02:31:03.305Z,4.87
2018-12-29T02:32:02.614Z,4.87
2018-12-29T02:33:02.932Z,4.87
2018-12-29T02:34:03.243Z,4.87
2018-12-29T02:35:02.523Z,4.87
2018-12-29T02:36:02.872Z,4.87
2018-12-29T02:37:03.212Z,4.87
2018-12-29T02:38:02.531Z,4.87
2018-12-29T02:39:02.830Z,4.87
2018-12-29T02:40:03.105Z,4.87
2018-12-29T02:41:02.451Z,4.87
2018-12-29T02:42:02.849Z,4.87
2018-12-29T02:43:03.214Z,4.87
2018-12-29T02:44:02.519Z,4.87
2018-12-29T02:45:02.857Z,4.87
2018-12-29T02:46:03.138Z,4.93
2018-12-29T02:47:02.448Z,4.87
2018-12-29T02:48:02.778Z,4.87
2018-12-29T02:49:03.172Z,4.87
2018-12-29T02:50:03.450Z,4.87
2018-12-29T02:51:02.759Z,4.87
2018-12-29T02:52:03.097Z,4.87
2018-12-29T02:53:02.360Z,4.87
2018-12-29T02:54:02.680Z,4.87
2018-12-29T02:55:03.065Z,4.87
2018-12-29T02:56:02.374Z,4.87
2018-12-29T02:57:02.786Z,4.87
2018-12-29T02:58:03.072Z,4.87
2018-12-29T02:59:02.357Z,4.87
2018-12-29T03:00:02.762Z,4.87
2018-12-29T03:01:03.087Z,4.87
2018-12-29T03:02:02.377Z,4.81
2018-12-29T03:03:02.681Z,4.87
2018-12-29T03:04:03.001Z,4.81
2018-12-29T03:05:02.300Z,4.87
2018-12-29T03:06:02.648Z,4.87
2018-12-29T03:07:02.911Z,4.87
2018-12-29T03:08:03.172Z,4.87
2018-12-29T03:09:02.437Z,4.87
2018-12-29T03:10:02.843Z,4.87
2018-12-29T03:11:03.208Z,4.87
2018-12-29T03:12:02.606Z,4.87
2018-12-29T03:13:02.910Z,4.87
2018-12-29T03:14:03.174Z,4.87
2018-12-29T03:15:02.460Z,4.87
2018-12-29T03:16:02.764Z,4.81
2018-12-29T03:17:03.132Z,4.87
2018-12-29T03:18:02.439Z,4.87
2018-12-29T03:19:02.756Z,4.87
2018-12-29T03:20:03.089Z,4.87
2018-12-29T03:21:02.375Z,4.87
2018-12-29T03:22:02.764Z,4.87
2018-12-29T03:23:03.130Z,4.87
2018-12-29T03:24:02.443Z,4.87
2018-12-29T03:25:02.774Z,4.87
2018-12-29T03:26:03.063Z,4.87
2018-12-29T03:27:02.365Z,4.87
2018-12-29T03:28:02.733Z,4.87
2018-12-29T03:29:03.055Z,4.87
2018-12-29T03:30:02.369Z,4.87
2018-12-29T03:31:02.681Z,4.87
2018-12-29T03:32:02.999Z,4.87
2018-12-29T03:33:02.276Z,4.87
2018-12-29T03:34:02.530Z,4.87
2018-12-29T03:35:02.893Z,4.87
2018-12-29T03:36:03.159Z,4.87
2018-12-29T03:37:02.426Z,4.87
2018-12-29T03:38:02.674Z,4.87
2018-12-29T03:39:03.041Z,4.87
2018-12-29T03:40:02.366Z,4.87
2018-12-29T03:41:02.736Z,4.87
2018-12-29T03:42:03.020Z,4.87
2018-12-29T03:43:02.331Z,4.87
2018-12-29T03:44:02.612Z,4.87
2018-12-29T03:45:02.944Z,4.87
2018-12-29T03:46:03.287Z,4.87
2018-12-29T03:47:02.610Z,4.93
2018-12-29T03:48:02.909Z,4.93
2018-12-29T03:49:03.152Z,4.87
2018-12-29T03:50:02.447Z,4.87
2018-12-29T03:51:02.826Z,4.87
2018-12-29T03:52:03.133Z,4.87
2018-12-29T03:53:02.448Z,4.87
2018-12-29T03:54:02.750Z,4.87
2018-12-29T03:55:03.009Z,4.87
2018-12-29T03:56:02.298Z,4.87
2018-12-29T03:57:02.657Z,4.87
2018-12-29T03:58:02.968Z,4.87
2018-12-29T03:59:02.275Z,4.87
2018-12-29T04:00:03.478Z,4.87
2018-12-29T04:01:02.778Z,4.87
2018-12-29T04:02:03.073Z,4.93
2018-12-29T04:03:02.371Z,4.87
2018-12-29T04:04:02.776Z,4.87
2018-12-29T04:05:03.076Z,4.87
2018-12-29T04:06:02.360Z,4.87
2018-12-29T04:07:02.676Z,4.87
2018-12-29T04:08:03.013Z,4.81
2018-12-29T04:09:02.276Z,4.81
2018-12-29T04:10:02.712Z,4.87
2018-12-29T04:11:03.029Z,4.87
2018-12-29T04:12:02.286Z,4.81
2018-12-29T04:13:02.603Z,4.87
2018-12-29T04:14:02.967Z,4.87
2018-12-29T04:15:02.301Z,4.81
2018-12-29T04:16:02.686Z,4.81
2018-12-29T04:17:03.018Z,4.81
2018-12-29T04:18:03.164Z,4.81
2018-12-29T04:19:02.447Z,4.81
2018-12-29T04:20:02.809Z,4.87
2018-12-29T04:21:03.162Z,4.87
2018-12-29T04:22:02.436Z,4.87
2018-12-29T04:23:02.758Z,4.87
2018-12-29T04:24:03.076Z,4.87
2018-12-29T04:25:02.367Z,4.81
2018-12-29T04:26:02.696Z,4.81
2018-12-29T04:27:03.057Z,4.87
2018-12-29T04:28:02.347Z,4.81
2018-12-29T04:29:02.684Z,4.81
2018-12-29T04:30:03.024Z,4.81
2018-12-29T04:31:02.275Z,4.87
2018-12-29T04:32:02.770Z,4.81
2018-12-29T04:33:03.083Z,4.87
2018-12-29T04:34:02.381Z,4.81
2018-12-29T04:35:02.694Z,4.81
2018-12-29T04:36:02.991Z,4.81
2018-12-29T04:37:02.308Z,4.81
2018-12-29T04:38:02.650Z,4.81
2018-12-29T04:39:02.917Z,4.81
2018-12-29T04:40:03.249Z,4.81
2018-12-29T04:41:02.539Z,4.81
2018-12-29T04:42:02.827Z,4.75
2018-12-29T04:43:03.172Z,4.81
2018-12-29T04:44:02.455Z,4.81
2018-12-29T04:45:02.840Z,4.81
2018-12-29T04:46:05.299Z,4.81
2018-12-29T04:47:02.750Z,4.81
2018-12-29T04:48:03.135Z,4.81
2018-12-29T04:49:02.443Z,4.81
2018-12-29T04:50:02.753Z,4.81
2018-12-29T04:51:02.997Z,4.81
2018-12-29T04:52:02.275Z,4.81
2018-12-29T04:53:02.531Z,4.81
2018-12-29T04:54:02.888Z,4.81
2018-12-29T04:55:03.172Z,4.87
2018-12-29T04:56:02.452Z,4.87
2018-12-29T04:57:02.776Z,4.87
2018-12-29T04:58:03.095Z,4.81
2018-12-29T04:59:02.365Z,4.87
2018-12-29T05:00:02.762Z,4.81
2018-12-29T05:01:03.181Z,4.81
2018-12-29T05:02:02.438Z,4.87
2018-12-29T05:03:02.754Z,4.87
2018-12-29T05:04:03.025Z,4.87
2018-12-29T05:05:02.332Z,4.87
2018-12-29T05:06:02.592Z,4.87
2018-12-29T05:07:02.843Z,4.87
2018-12-29T05:08:03.176Z,4.87
2018-12-29T05:09:02.445Z,4.81
2018-12-29T05:10:02.811Z,4.81
2018-12-29T05:11:03.088Z,4.87
2018-12-29T05:12:02.352Z,4.87
2018-12-29T05:13:02.675Z,4.87
2018-12-29T05:14:02.994Z,4.87
2018-12-29T05:15:02.340Z,4.87
2018-12-29T05:16:02.698Z,4.87
2018-12-29T05:17:02.999Z,4.87
2018-12-29T05:18:02.278Z,4.87
2018-12-29T05:19:02.608Z,4.87
2018-12-29T05:20:02.981Z,4.87
2018-12-29T05:21:02.283Z,4.87
2018-12-29T05:22:02.651Z,4.87
2018-12-29T05:23:02.933Z,4.87
2018-12-29T05:24:03.234Z,4.87
2018-12-29T05:25:02.496Z,4.87
2018-12-29T05:26:02.917Z,4.87
2018-12-29T05:27:03.294Z,4.87
2018-12-29T05:28:02.601Z,4.87
2018-12-29T05:29:02.920Z,4.87
2018-12-29T05:30:03.240Z,4.87
2018-12-29T05:31:02.537Z,4.81
2018-12-29T05:32:02.887Z,4.87
2018-12-29T05:33:03.243Z,4.87
2018-12-29T05:34:02.524Z,4.87
2018-12-29T05:35:02.857Z,4.81
2018-12-29T05:36:03.164Z,4.87
2018-12-29T05:37:02.442Z,4.87
2018-12-29T05:38:02.825Z,4.81
2018-12-29T05:39:03.129Z,4.81
2018-12-29T05:40:02.432Z,4.81
2018-12-29T05:41:02.678Z,4.81
2018-12-29T05:42:02.990Z,4.81
2018-12-29T05:43:02.371Z,4.87
2018-12-29T05:44:02.743Z,4.87
2018-12-29T05:45:03.728Z,4.87
2018-12-29T05:46:03.188Z,4.87
2018-12-29T05:47:02.527Z,4.81
2018-12-29T05:48:02.902Z,4.87
2018-12-29T05:49:03.226Z,4.87
2018-12-29T05:50:02.569Z,4.81
2018-12-29T05:51:02.847Z,4.81
2018-12-29T05:52:03.150Z,4.81
2018-12-29T05:53:02.462Z,4.87
2018-12-29T05:54:02.754Z,4.87
2018-12-29T05:55:03.131Z,4.81
2018-12-29T05:56:02.493Z,4.87
2018-12-29T05:57:03.631Z,4.87
2018-12-29T05:58:02.925Z,4.81
2018-12-29T05:59:03.243Z,4.81
2018-12-29T06:00:02.526Z,4.81
2018-12-29T06:01:02.637Z,4.81
2018-12-29T06:02:02.919Z,4.81
2018-12-29T06:03:03.323Z,4.87
2018-12-29T06:04:02.595Z,4.87
2018-12-29T06:05:02.831Z,4.81
2018-12-29T06:06:03.127Z,4.81
2018-12-29T06:07:02.443Z,4.81
2018-12-29T06:08:02.764Z,4.81
2018-12-29T06:09:03.074Z,4.81
2018-12-29T06:10:02.360Z,4.81
2018-12-29T06:11:02.698Z,4.81
2018-12-29T06:12:03.092Z,4.81
2018-12-29T06:13:02.352Z,4.81
2018-12-29T06:14:02.593Z,4.81
2018-12-29T06:15:02.831Z,4.81
2018-12-29T06:16:03.188Z,4.81
2018-12-29T06:17:02.515Z,4.81
2018-12-29T06:18:02.889Z,4.81
2018-12-29T06:19:03.210Z,4.81
2018-12-29T06:20:02.521Z,4.81
2018-12-29T06:21:02.834Z,4.75
2018-12-29T06:22:03.163Z,4.81
2018-12-29T06:23:02.456Z,4.75
2018-12-29T06:24:02.847Z,4.81
2018-12-29T06:25:03.177Z,4.81
2018-12-29T06:26:02.438Z,4.81
2018-12-29T06:27:02.766Z,4.81
2018-12-29T06:28:03.104Z,4.81
2018-12-29T06:29:02.371Z,4.75
2018-12-29T06:30:02.732Z,4.75
2018-12-29T06:31:03.001Z,4.75
2018-12-29T06:32:02.275Z,4.75
2018-12-29T06:33:02.597Z,4.81
2018-12-29T06:34:02.934Z,4.81
2018-12-29T06:35:03.287Z,4.75
2018-12-29T06:36:02.654Z,4.75
2018-12-29T06:37:02.918Z,4.75
2018-12-29T06:38:03.235Z,4.75
2018-12-29T06:39:02.530Z,4.81
2018-12-29T06:40:02.848Z,4.81
2018-12-29T06:41:03.261Z,4.81
2018-12-29T06:42:02.532Z,4.75
2018-12-29T06:43:02.853Z,4.81
2018-12-29T06:44:03.176Z,4.81
2018-12-29T06:45:02.441Z,4.81
2018-12-29T06:46:02.767Z,4.81
2018-12-29T06:47:03.137Z,4.75
2018-12-29T06:48:02.431Z,4.75
2018-12-29T06:49:02.685Z,4.75
2018-12-29T06:50:03.006Z,4.75
2018-12-29T06:51:02.339Z,4.75
2018-12-29T06:52:02.664Z,4.68
2018-12-29T06:53:02.973Z,4.75
2018-12-29T06:54:02.339Z,4.75
2018-12-29T06:55:02.598Z,4.81
2018-12-29T06:56:02.916Z,4.75
2018-12-29T06:57:03.252Z,4.81
2018-12-29T06:58:02.524Z,4.81
2018-12-29T06:59:02.938Z,4.75
2018-12-29T07:00:03.241Z,4.75
2018-12-29T07:01:02.523Z,4.75
2018-12-29T07:02:02.847Z,4.75
2018-12-29T07:03:03.177Z,4.75
2018-12-29T07:04:02.481Z,4.75
2018-12-29T07:05:02.817Z,4.75
2018-12-29T07:06:03.131Z,4.75
2018-12-29T07:07:02.444Z,4.75
2018-12-29T07:08:02.763Z,4.75
2018-12-29T07:09:03.079Z,4.75
2018-12-29T07:10:02.369Z,4.81
2018-12-29T07:11:03.650Z,4.75
2018-12-29T07:12:02.919Z,4.81
2018-12-29T07:13:03.237Z,4.81
2018-12-29T07:14:02.531Z,4.81
2018-12-29T07:15:02.843Z,4.81
2018-12-29T07:16:03.164Z,4.75
2018-12-29T07:17:04.359Z,4.81
2018-12-29T07:18:02.679Z,4.75
2018-12-29T07:19:03.872Z,4.81
2018-12-29T07:20:03.157Z,4.75
2018-12-29T07:21:03.374Z,4.75
2018-12-29T07:22:02.763Z,4.75
2018-12-29T07:23:03.075Z,4.81
2018-12-29T07:24:02.379Z,4.81
2018-12-29T07:25:02.675Z,4.81
2018-12-29T07:26:02.997Z,4.75
2018-12-29T07:27:02.274Z,4.75
2018-12-29T07:28:02.647Z,4.75
2018-12-29T07:29:04.135Z,4.75
2018-12-29T07:30:02.516Z,4.75
2018-12-29T07:31:02.841Z,4.75
2018-12-29T07:32:03.148Z,4.75
2018-12-29T07:33:02.460Z,4.75
2018-12-29T07:34:02.805Z,4.75
2018-12-29T07:35:03.080Z,4.75
2018-12-29T07:36:02.363Z,4.75
2018-12-29T07:37:02.784Z,4.75
2018-12-29T07:38:03.086Z,4.75
2018-12-29T07:39:02.372Z,4.75
2018-12-29T07:40:02.731Z,4.81
2018-12-29T07:41:02.996Z,4.81
2018-12-29T07:42:02.292Z,4.75
2018-12-29T07:43:02.615Z,4.75
2018-12-29T07:44:02.903Z,4.75
2018-12-29T07:45:03.315Z,4.75
2018-12-29T07:46:02.599Z,4.81
2018-12-29T07:47:02.939Z,4.75
2018-12-29T07:48:03.234Z,4.81
2018-12-29T07:49:02.531Z,4.81
2018-12-29T07:50:02.856Z,4.81
2018-12-29T07:51:03.210Z,4.81
2018-12-29T07:52:02.580Z,4.81
2018-12-29T07:53:02.902Z,4.81
2018-12-29T07:54:03.176Z,4.81
2018-12-29T07:55:02.451Z,4.81
2018-12-29T07:56:02.787Z,4.81
2018-12-29T07:57:03.242Z,4.87
2018-12-29T07:58:02.516Z,4.87
2018-12-29T07:59:02.841Z,4.81
2018-12-29T08:00:03.178Z,4.87
2018-12-29T08:01:02.437Z,4.87
2018-12-29T08:02:02.770Z,4.81
2018-12-29T08:03:03.181Z,4.81
2018-12-29T08:04:02.434Z,4.81
2018-12-29T08:05:02.681Z,4.81
2018-12-29T08:06:02.993Z,4.87
2018-12-29T08:07:02.335Z,4.87
2018-12-29T08:08:02.610Z,4.87
2018-12-29T08:09:02.976Z,4.87
2018-12-29T08:10:02.326Z,4.87
2018-12-29T08:11:03.468Z,4.87
2018-12-29T08:12:02.761Z,4.87
2018-12-29T08:13:03.958Z,4.87
2018-12-29T08:14:02.288Z,4.87
2018-12-29T08:15:02.657Z,4.87
2018-12-29T08:16:03.793Z,4.87
2018-12-29T08:17:03.073Z,4.87
2018-12-29T08:18:02.369Z,4.87
2018-12-29T08:19:02.677Z,4.87
2018-12-29T08:20:02.998Z,4.87
2018-12-29T08:21:02.367Z,4.93
2018-12-29T08:22:02.736Z,4.87
2018-12-29T08:23:02.997Z,4.87
2018-12-29T08:24:02.287Z,4.87
2018-12-29T08:25:02.616Z,4.87
2018-12-29T08:26:02.918Z,4.87
2018-12-29T08:27:03.291Z,4.87
2018-12-29T08:28:02.583Z,4.87
2018-12-29T08:29:02.912Z,4.87
2018-12-29T08:30:03.232Z,4.87
2018-12-29T08:31:02.511Z,4.87
2018-12-29T08:32:02.852Z,4.87
2018-12-29T08:33:03.281Z,4.87
2018-12-29T08:34:02.593Z,4.87
2018-12-29T08:35:02.923Z,4.87
2018-12-29T08:36:03.245Z,4.87
2018-12-29T08:37:02.563Z,4.87
2018-12-29T08:38:02.985Z,4.93
2018-12-29T08:39:02.304Z,4.87
2018-12-29T08:40:02.594Z,4.93
2018-12-29T08:41:02.915Z,4.93
2018-12-29T08:42:03.228Z,4.93
2018-12-29T08:43:03.492Z,4.93
2018-12-29T08:44:02.757Z,4.93
2018-12-29T08:45:03.135Z,4.93
2018-12-29T08:46:02.435Z,4.93
2018-12-29T08:47:04.549Z,4.93
2018-12-29T08:48:03.088Z,4.93
2018-12-29T08:49:02.405Z,4.93
2018-12-29T08:50:02.677Z,4.93
2018-12-29T08:51:02.994Z,4.93
2018-12-29T08:52:02.290Z,4.93
2018-12-29T08:53:02.619Z,4.93
2018-12-29T08:54:02.968Z,4.93
2018-12-29T08:55:02.280Z,4.93
2018-12-29T08:56:02.597Z,5
2018-12-29T08:57:02.919Z,4.93
2018-12-29T08:58:03.240Z,5
2018-12-29T08:59:02.529Z,4.93
2018-12-29T09:00:02.896Z,5
2018-12-29T09:01:03.208Z,5
2018-12-29T09:02:02.510Z,5
2018-12-29T09:03:02.840Z,5
2018-12-29T09:04:03.123Z,5
2018-12-29T09:05:02.443Z,5
2018-12-29T09:06:02.851Z,5
2018-12-29T09:07:03.231Z,5
2018-12-29T09:08:02.523Z,5
2018-12-29T09:09:02.838Z,5.06
2018-12-29T09:10:03.164Z,5.06
2018-12-29T09:11:02.488Z,5
2018-12-29T09:12:02.768Z,5
2018-12-29T09:13:03.092Z,5.06
2018-12-29T09:14:02.366Z,5.06
2018-12-29T09:15:02.694Z,5.06
2018-12-29T09:16:03.051Z,5.06
2018-12-29T09:17:02.370Z,5.06
2018-12-29T09:18:02.686Z,5.06
2018-12-29T09:19:02.999Z,5.12
2018-12-29T09:20:02.279Z,5.06
2018-12-29T09:21:02.620Z,5.06
2018-12-29T09:22:02.970Z,5.12
2018-12-29T09:23:02.303Z,5.12
2018-12-29T09:24:02.618Z,5.12
2018-12-29T09:25:02.941Z,5.12
2018-12-29T09:26:04.698Z,5.12
2018-12-29T09:27:03.086Z,5.18
2018-12-29T09:28:02.506Z,5.18
2018-12-29T09:29:02.782Z,5.18
2018-12-29T09:30:03.071Z,5.18
2018-12-29T09:31:02.368Z,5.18
2018-12-29T09:32:02.819Z,5.18
2018-12-29T09:33:03.161Z,5.18
2018-12-29T09:34:02.489Z,5.18
2018-12-29T09:35:02.765Z,5.18
2018-12-29T09:36:03.068Z,5.18
2018-12-29T09:37:02.356Z,5.25
2018-12-29T09:38:02.676Z,5.18
2018-12-29T09:39:03.056Z,5.25
2018-12-29T09:40:02.416Z,5.25
2018-12-29T09:41:02.699Z,5.25
2018-12-29T09:42:03.003Z,5.25
2018-12-29T09:43:02.294Z,5.25
2018-12-29T09:44:02.600Z,5.25
2018-12-29T09:45:02.992Z,5.25
2018-12-29T09:46:03.359Z,5.31
2018-12-29T09:47:02.767Z,5.31
2018-12-29T09:48:03.230Z,5.31
2018-12-29T09:49:02.597Z,5.31
2018-12-29T09:50:02.920Z,5.31
2018-12-29T09:51:03.352Z,5.31
2018-12-29T09:52:02.682Z,5.31
2018-12-29T09:53:02.990Z,5.31
2018-12-29T09:54:02.322Z,5.31
2018-12-29T09:55:02.634Z,5.31
2018-12-29T09:56:02.926Z,5.31
2018-12-29T09:57:03.394Z,5.31
2018-12-29T09:58:02.778Z,5.31
2018-12-29T09:59:03.966Z,5.31
2018-12-29T10:00:03.167Z,5.31
2018-12-29T10:01:02.430Z,5.31
2018-12-29T10:02:02.927Z,5.31
2018-12-29T10:03:03.304Z,5.31
2018-12-29T10:04:02.587Z,5.31
2018-12-29T10:05:02.912Z,5.31
2018-12-29T10:06:03.282Z,5.31
2018-12-29T10:07:02.597Z,5.31
2018-12-29T10:08:02.926Z,5.31
2018-12-29T10:09:03.291Z,5.31
2018-12-29T10:10:02.582Z,5.31
2018-12-29T10:11:02.837Z,5.31
2018-12-29T10:12:03.363Z,5.25
2018-12-29T10:13:02.759Z,5.31
2018-12-29T10:14:03.138Z,5.31
2018-12-29T10:15:02.513Z,5.37
2018-12-29T10:16:02.841Z,5.37
2018-12-29T10:17:03.925Z,5.37
2018-12-29T10:18:02.281Z,5.37
2018-12-29T10:19:02.614Z,5.37
2018-12-29T10:20:02.969Z,5.43
2018-12-29T10:21:02.372Z,5.43
2018-12-29T10:22:02.731Z,5.5
2018-12-29T10:23:03.014Z,5.56
2018-12-29T10:24:02.278Z,5.5
2018-12-29T10:25:02.609Z,5.5
2018-12-29T10:26:02.967Z,5.56
2018-12-29T10:27:02.289Z,5.5
2018-12-29T10:28:02.592Z,5.43
2018-12-29T10:29:02.916Z,5.5
2018-12-29T10:30:03.243Z,5.5
2018-12-29T10:31:02.532Z,5.43
2018-12-29T10:32:02.893Z,5.43
2018-12-29T10:33:03.285Z,5.43
2018-12-29T10:34:02.596Z,5.43
2018-12-29T10:35:02.916Z,5.43
2018-12-29T10:36:03.244Z,5.43
2018-12-29T10:37:02.530Z,5.43
2018-12-29T10:38:02.964Z,5.43
2018-12-29T10:39:02.291Z,5.43
2018-12-29T10:40:02.598Z,5.43
2018-12-29T10:41:03.805Z,5.5
2018-12-29T10:42:03.968Z,5.43
2018-12-29T10:43:02.278Z,5.43
2018-12-29T10:44:02.661Z,5.5
2018-12-29T10:45:02.939Z,5.5
2018-12-29T10:46:03.227Z,5.5
2018-12-29T10:47:02.518Z,5.5
2018-12-29T10:48:02.837Z,5.5
2018-12-29T10:49:03.221Z,5.56
2018-12-29T10:50:02.534Z,5.56
2018-12-29T10:51:02.911Z,5.56
2018-12-29T10:52:03.171Z,5.62
2018-12-29T10:53:02.432Z,5.68
2018-12-29T10:54:02.729Z,5.68
2018-12-29T10:55:03.085Z,5.68
2018-12-29T10:56:02.356Z,5.68
2018-12-29T10:57:02.684Z,5.68
2018-12-29T10:58:02.993Z,5.68
2018-12-29T10:59:02.317Z,5.68
2018-12-29T11:00:02.662Z,5.68
2018-12-29T11:01:02.934Z,5.68
2018-12-29T11:02:03.240Z,5.62
2018-12-29T11:03:02.562Z,5.68
2018-12-29T11:04:02.923Z,5.68
2018-12-29T11:05:03.285Z,5.62
2018-12-29T11:06:02.604Z,5.68
2018-12-29T11:07:02.927Z,5.68
2018-12-29T11:08:03.234Z,5.68
2018-12-29T11:09:02.551Z,5.68
2018-12-29T11:10:02.898Z,5.68
2018-12-29T11:11:03.250Z,5.75
2018-12-29T11:12:02.516Z,5.75
2018-12-29T11:13:02.829Z,5.75
2018-12-29T11:14:03.082Z,5.75
2018-12-29T11:15:02.377Z,5.68
2018-12-29T11:16:02.681Z,5.75
2018-12-29T11:17:03.052Z,5.75
2018-12-29T11:18:02.361Z,5.75
2018-12-29T11:19:02.735Z,5.75
2018-12-29T11:20:02.999Z,5.75
2018-12-29T11:21:02.542Z,5.81
2018-12-29T11:22:02.968Z,5.81
2018-12-29T11:23:02.337Z,5.81
2018-12-29T11:24:02.601Z,5.81
2018-12-29T11:25:02.920Z,5.81
2018-12-29T11:26:03.233Z,5.81
2018-12-29T11:27:02.519Z,5.81
2018-12-29T11:28:02.851Z,5.81
2018-12-29T11:29:03.228Z,5.81
2018-12-29T11:30:02.576Z,5.81
2018-12-29T11:31:02.856Z,5.75
2018-12-29T11:32:03.154Z,5.75
2018-12-29T11:33:02.446Z,5.75
2018-12-29T11:34:02.774Z,5.68
2018-12-29T11:35:03.594Z,5.68
2018-12-29T11:36:02.930Z,5.68
2018-12-29T11:37:03.227Z,5.68
2018-12-29T11:38:02.526Z,5.68
2018-12-29T11:39:02.811Z,5.75
2018-12-29T11:40:03.095Z,5.75
2018-12-29T11:41:02.478Z,5.68
2018-12-29T11:42:02.763Z,5.68
2018-12-29T11:43:03.079Z,5.68
2018-12-29T11:44:02.359Z,5.75
2018-12-29T11:45:02.689Z,5.75
2018-12-29T11:46:03.086Z,5.75
2018-12-29T11:47:02.352Z,5.75
2018-12-29T11:48:02.616Z,5.75
2018-12-29T11:49:02.918Z,5.75
2018-12-29T11:50:03.242Z,5.75
2018-12-29T11:51:02.570Z,5.75
2018-12-29T11:52:03.292Z,5.75
2018-12-29T11:53:02.618Z,5.75
2018-12-29T11:54:02.918Z,5.81
2018-12-29T11:55:03.256Z,5.81
2018-12-29T11:56:02.514Z,5.75
2018-12-29T11:57:02.851Z,5.81
2018-12-29T11:58:03.447Z,5.75
2018-12-29T11:59:02.752Z,5.81
2018-12-29T12:00:03.098Z,5.75
2018-12-29T12:01:02.512Z,5.75
2018-12-29T12:02:02.842Z,5.75
2018-12-29T12:03:03.220Z,5.75
2018-12-29T12:04:02.590Z,5.75
2018-12-29T12:05:02.918Z,5.75
2018-12-29T12:06:03.303Z,5.75
2018-12-29T12:07:02.602Z,5.81
2018-12-29T12:08:02.935Z,5.81
2018-12-29T12:09:03.300Z,5.87
2018-12-29T12:10:02.668Z,5.87
2018-12-29T12:11:03.969Z,5.87
2018-12-29T12:12:02.269Z,5.87
2018-12-29T12:13:02.613Z,5.81
2018-12-29T12:14:02.931Z,5.75
2018-12-29T12:15:04.219Z,5.75
2018-12-29T12:16:02.610Z,5.75
2018-12-29T12:17:02.920Z,5.68
2018-12-29T12:18:03.262Z,5.75
2018-12-29T12:19:02.756Z,5.75
2018-12-29T12:20:03.077Z,5.81
2018-12-29T12:21:02.378Z,5.81
2018-12-29T12:22:02.811Z,5.87
2018-12-29T12:23:03.080Z,5.87
2018-12-29T12:24:02.360Z,5.87
2018-12-29T12:25:02.680Z,5.81
2018-12-29T12:26:03.052Z,5.81
2018-12-29T12:27:02.421Z,5.81
2018-12-29T12:28:02.674Z,5.75
2018-12-29T12:29:03.003Z,5.75
2018-12-29T12:30:02.602Z,5.75
2018-12-29T12:31:02.968Z,5.81
2018-12-29T12:32:02.288Z,5.81
2018-12-29T12:33:02.611Z,5.81
2018-12-29T12:34:02.927Z,5.87
2018-12-29T12:35:02.574Z,5.87
2018-12-29T12:36:03.023Z,5.87
2018-12-29T12:37:02.412Z,5.81
2018-12-29T12:38:02.888Z,5.81
2018-12-29T12:39:03.214Z,5.81
2018-12-29T12:40:03.715Z,5.81
2018-12-29T12:41:03.005Z,5.81
2018-12-29T12:42:02.485Z,5.81
2018-12-29T12:43:02.768Z,5.87
2018-12-29T12:44:03.078Z,5.93
2018-12-29T12:45:02.355Z,5.93
2018-12-29T12:46:02.695Z,5.93
2018-12-29T12:47:03.132Z,5.93
2018-12-29T12:48:05.067Z,6
2018-12-29T12:49:02.677Z,6
2018-12-29T12:50:03.003Z,6
2018-12-29T12:51:02.451Z,6
2018-12-29T12:52:03.700Z,6
2018-12-29T12:53:03.099Z,6
2018-12-29T12:54:02.671Z,6
2018-12-29T12:55:02.988Z,6.06
2018-12-29T12:56:02.294Z,6
2018-12-29T12:57:02.590Z,5.93
2018-12-29T12:58:03.708Z,6
2018-12-29T12:59:02.435Z,6
2018-12-29T13:00:02.764Z,6
2018-12-29T13:01:02.373Z,6
2018-12-29T13:02:02.994Z,6
2018-12-29T13:03:02.287Z,5.93
2018-12-29T13:04:02.722Z,6
2018-12-29T13:05:03.018Z,6
2018-12-29T13:06:02.357Z,6
2018-12-29T13:07:02.672Z,6
2018-12-29T13:08:02.998Z,6
2018-12-29T13:09:02.325Z,6
2018-12-29T13:10:03.116Z,6
2018-12-29T13:11:02.768Z,6
2018-12-29T13:12:03.077Z,6
2018-12-29T13:13:02.352Z,5.93
2018-12-29T13:14:02.738Z,5.93
2018-12-29T13:15:03.053Z,6
2018-12-29T13:16:02.393Z,6
2018-12-29T13:17:03.558Z,6
2018-12-29T13:18:02.834Z,6
2018-12-29T13:19:03.220Z,6
2018-12-29T13:20:02.687Z,6
2018-12-29T13:21:03.113Z,6
2018-12-29T13:22:02.434Z,5.93
2018-12-29T13:23:02.781Z,5.93